Time;durP1;ratioP1;P1;durP2;ratioP2;P2;SDS_P1;SDS_P2;PMS_P1;PMS_P2;Temp;Humidity;BMP_temperature;BMP_pressure;BME280_temperature;BME280_humidity;BME280_pressure;Samples;Min_cycle;Max_cycle;Signal;HPM_P1;HPM_P2
2022/10/11 00:00:00;;;;;;;1.42;1.33;;;;;;;12.01;60.58;101846.63;5163180;28;20054;-82
2022/10/11 00:02:31;;;;;;;1.65;1.40;;;;;;;11.99;60.65;101846.63;5165565;28;20046;-82
2022/10/11 00:05:01;;;;;;;0.30;0.30;;;;;;;11.89;61.12;101843.22;5155008;28;20053;-82
2022/10/11 00:07:38;;;;;;;1.48;1.38;;;;;;;11.89;60.81;101848.50;5147510;28;20022;-81
2022/10/11 00:10:10;;;;;;;0.65;0.65;;;;;;;11.85;61.34;101857.34;5156951;28;20031;-82
2022/10/11 00:12:41;;;;;;;12.18;1.10;;;;;;;11.82;61.22;101847.72;5130659;28;20046;-82
2022/10/11 00:15:14;;;;;;;0.43;0.43;;;;;;;11.83;60.60;101853.84;5129847;28;20487;-83
2022/10/11 00:17:44;;;;;;;0.73;0.73;;;;;;;11.82;60.82;101852.09;5143968;28;20351;-83
2022/10/11 00:20:15;;;;;;;0.30;0.30;;;;;;;11.76;60.48;101853.06;5143874;28;20061;-82
2022/10/11 00:22:48;;;;;;;0.88;0.85;;;;;;;11.73;60.70;101847.88;5143798;28;20037;-81
2022/10/11 00:25:18;;;;;;;0.40;0.40;;;;;;;11.71;60.92;101856.63;5147459;28;20121;-82
2022/10/11 00:27:49;;;;;;;0.38;0.38;;;;;;;11.70;60.96;101861.03;5143010;28;20077;-82
2022/10/11 00:30:19;;;;;;;1.55;1.40;;;;;;;11.64;60.70;101859.34;5167690;28;20065;-82
2022/10/11 00:32:50;;;;;;;9.43;2.55;;;;;;;11.62;60.84;101863.75;5152936;28;20034;-82
2022/10/11 00:35:20;;;;;;;4.72;1.80;;;;;;;11.56;60.37;101871.72;5145595;28;20035;-81
2022/10/11 00:37:51;;;;;;;3.15;0.98;;;;;;;11.41;60.73;101859.63;5164732;28;20062;-81
2022/10/11 00:40:21;;;;;;;0.68;0.60;;;;;;;11.37;60.61;101864.94;5167202;28;20046;-81
2022/10/11 00:42:52;;;;;;;2.35;0.85;;;;;;;11.37;61.11;101860.59;5170907;28;20034;-81
2022/10/11 00:45:26;;;;;;;0.75;0.75;;;;;;;11.30;60.74;101862.41;5152477;28;20079;-84
2022/10/11 00:48:16;;;;;;;;;;;;;;;11.29;60.78;101868.53;5177150;28;20022;-82
2022/10/11 00:50:47;;;;;;;0.30;0.30;;;;;;;11.26;61.01;101871.22;5155380;28;19920;-81
2022/10/11 00:53:17;;;;;;;1.02;1.00;;;;;;;11.21;60.91;101872.16;5158356;28;20045;-81
2022/10/11 00:56:01;;;;;;;1.45;0.93;;;;;;;11.20;61.04;101873.91;5182075;28;20116;-82
2022/10/11 00:58:35;;;;;;;1.15;1.00;;;;;;;11.20;61.34;101878.28;5178572;28;20124;-81
2022/10/11 01:01:08;;;;;;;;;;;;;;;11.17;61.10;101879.22;5184348;28;20041;-81
2022/10/11 01:03:43;;;;;;;0.65;0.65;;;;;;;11.19;61.29;101882.69;5158755;28;19918;-81
2022/10/11 01:06:14;;;;;;;0.73;0.73;;;;;;;11.16;61.16;101878.31;5156023;28;20106;-82
2022/10/11 01:08:45;;;;;;;1.95;1.83;;;;;;;11.10;61.42;101882.78;5156769;28;20590;-82
2022/10/11 01:11:20;;;;;;;1.85;0.85;;;;;;;11.07;61.63;101878.44;5149399;28;20039;-82
2022/10/11 01:13:53;;;;;;;3.40;2.25;;;;;;;11.05;61.07;101881.94;5157047;28;20038;-82
2022/10/11 01:16:39;;;;;;;3.75;2.45;;;;;;;11.03;61.32;101882.84;5141733;28;20098;-80
2022/10/11 01:19:42;;;;;;;1.75;1.65;;;;;;;11.02;61.89;101878.50;5151716;28;20120;-81
2022/10/11 01:22:31;;;;;;;0.90;0.90;;;;;;;10.98;61.11;101883.78;5112920;28;20042;-82
2022/10/11 01:25:31;;;;;;;0.32;0.32;;;;;;;10.96;61.80;101885.56;5154118;28;20077;-82
2022/10/11 01:28:26;;;;;;;2.00;1.77;;;;;;;10.93;61.72;101877.69;5155569;28;20037;-82
2022/10/11 01:31:22;;;;;;;0.43;0.43;;;;;;;10.92;61.88;101875.94;5146583;28;20026;-82
2022/10/11 01:34:13;;;;;;;0.50;0.50;;;;;;;10.88;62.02;101884.75;5141274;28;20052;-80
2022/10/11 01:36:56;;;;;;;7.72;1.30;;;;;;;10.90;61.92;101883.00;5135411;28;20026;-81
2022/10/11 01:39:27;;;;;;;;;;;;;;;10.84;61.98;101882.16;5140172;28;20410;-82
2022/10/11 01:42:01;;;;;;;0.30;0.30;;;;;;;10.82;61.41;101883.06;5140355;28;19909;-82
2022/10/11 01:44:35;;;;;;;1.40;1.30;;;;;;;10.82;61.68;101885.69;5166280;28;20052;-80
2022/10/11 01:47:07;;;;;;;0.70;0.70;;;;;;;10.84;61.26;101878.66;5155371;28;20061;-82
2022/10/11 01:49:38;;;;;;;12.68;1.67;;;;;;;10.82;61.96;101885.69;5147114;28;20113;-80
2022/10/11 01:52:10;;;;;;;0.32;0.32;;;;;;;10.77;61.64;101890.13;5151966;28;20133;-82
2022/10/11 01:54:46;;;;;;;9.23;1.42;;;;;;;10.75;61.15;101889.25;5152893;28;20034;-81
2022/10/11 01:57:51;;;;;;;0.47;0.47;;;;;;;10.73;62.10;101896.25;5136312;28;20121;-81
2022/10/11 02:00:24;;;;;;;1.75;1.23;;;;;;;10.73;61.20;101891.00;5149503;28;20701;-82
2022/10/11 02:03:23;;;;;;;0.50;0.50;;;;;;;10.69;61.88;101885.81;5172698;28;20033;-81
2022/10/11 02:06:16;;;;;;;0.70;0.70;;;;;;;10.67;61.57;101882.31;5150293;28;20076;-81
2022/10/11 02:08:58;;;;;;;0.63;0.63;;;;;;;10.65;61.16;101885.84;5153835;28;20121;-81
2022/10/11 02:11:31;;;;;;;0.73;0.73;;;;;;;10.63;61.49;101896.34;5154710;28;20061;-81
2022/10/11 02:14:19;;;;;;;1.38;1.13;;;;;;;10.59;61.32;101892.00;5165276;28;20050;-82
2022/10/11 02:16:57;;;;;;;0.60;0.60;;;;;;;10.60;61.01;101893.75;5153368;28;20588;-82
2022/10/11 02:19:34;;;;;;;0.45;0.45;;;;;;;10.59;61.22;101897.25;5176698;28;20045;-81
2022/10/11 02:22:14;;;;;;;3.65;2.58;;;;;;;10.55;61.20;101898.16;5175415;28;20095;-82
2022/10/11 02:24:49;;;;;;;0.40;0.40;;;;;;;10.53;61.07;101897.31;5154877;28;20121;-82
2022/10/11 02:27:24;;;;;;;1.08;0.98;;;;;;;10.36;61.81;101906.16;5162906;28;20033;-81
2022/10/11 02:29:58;;;;;;;1.85;0.82;;;;;;;10.32;61.41;101901.81;5158476;28;20103;-82
2022/10/11 02:32:31;;;;;;;2.75;1.40;;;;;;;10.33;61.56;101907.94;5161666;28;20029;-81
2022/10/11 02:35:02;;;;;;;4.55;1.95;;;;;;;10.26;61.37;101907.09;5171912;28;20537;-82
2022/10/11 02:38:12;;;;;;;0.68;0.68;;;;;;;10.29;61.42;101904.44;5170130;28;20049;-83
2022/10/11 02:40:47;;;;;;;1.08;0.73;;;;;;;10.22;61.88;101907.97;5154940;28;20046;-81
2022/10/11 02:43:23;;;;;;;2.17;1.08;;;;;;;10.22;61.92;101907.97;5152671;28;20046;-82
2022/10/11 02:45:59;;;;;;;6.03;1.08;;;;;;;10.18;61.81;101906.28;5150549;28;20056;-81
2022/10/11 02:48:31;;;;;;;1.35;1.15;;;;;;;10.15;61.52;101914.16;5190252;28;20030;-82
2022/10/11 02:51:03;;;;;;;0.45;0.45;;;;;;;10.18;61.88;101916.78;5156102;28;20051;-82
2022/10/11 02:53:34;;;;;;;1.30;0.77;;;;;;;10.14;61.94;101918.53;5170035;28;20037;-82
2022/10/11 02:56:05;;;;;;;0.30;0.30;;;;;;;10.09;62.13;101922.91;5167492;28;20084;-82
2022/10/11 02:58:39;;;;;;;0.30;0.30;;;;;;;10.12;62.16;101928.16;5161532;28;20049;-82
2022/10/11 03:01:12;;;;;;;0.70;0.70;;;;;;;10.12;61.94;101925.53;5174535;28;20038;-81
2022/10/11 03:03:47;;;;;;;0.40;0.40;;;;;;;10.10;61.90;101929.91;5152937;28;20606;-82
2022/10/11 03:06:31;;;;;;;1.98;0.95;;;;;;;10.09;62.02;101930.78;5161074;28;20030;-81
2022/10/11 03:09:06;;;;;;;0.30;0.30;;;;;;;10.12;61.99;101932.56;5154199;28;20203;-83
2022/10/11 03:11:45;;;;;;;0.70;0.70;;;;;;;10.11;61.58;101936.06;5165859;28;20068;-81
2022/10/11 03:14:19;;;;;;;0.50;0.50;;;;;;;10.10;62.02;101929.06;5175397;28;20689;-81
2022/10/11 03:16:49;;;;;;;0.57;0.57;;;;;;;10.08;62.02;101929.06;5195058;28;20066;-82
2022/10/11 03:19:20;;;;;;;2.45;1.95;;;;;;;10.01;61.96;101928.22;5172788;28;20034;-80
2022/10/11 03:21:51;;;;;;;1.48;1.40;;;;;;;10.00;61.70;101936.97;5192778;28;20076;-81
2022/10/11 03:24:22;;;;;;;0.77;0.77;;;;;;;10.02;61.64;101936.94;5193669;28;20148;-80
2022/10/11 03:26:52;;;;;;;0.85;0.85;;;;;;;9.93;61.94;101937.88;5200482;28;20347;-82
2022/10/11 03:29:23;;;;;;;1.25;0.90;;;;;;;9.93;61.80;101937.88;5207254;28;20076;-82
2022/10/11 03:31:53;;;;;;;0.63;0.63;;;;;;;9.90;62.07;101938.78;5190684;28;20078;-81
2022/10/11 03:34:24;;;;;;;0.63;0.63;;;;;;;9.90;62.34;101940.50;5149987;28;20030;-81
2022/10/11 03:36:54;;;;;;;0.57;0.57;;;;;;;9.90;61.79;101937.88;5152165;28;20041;-81
2022/10/11 03:39:25;;;;;;;1.15;1.13;;;;;;;9.88;61.56;101944.88;5159840;28;20218;-82
2022/10/11 03:41:55;;;;;;;0.43;0.43;;;;;;;9.85;61.54;101942.28;5172278;28;20038;-81
2022/10/11 03:44:26;;;;;;;1.27;1.00;;;;;;;9.83;61.66;101946.66;5184412;28;20084;-82
2022/10/11 03:46:57;;;;;;;1.98;1.48;;;;;;;9.81;61.44;101945.78;5171946;28;20021;-82
2022/10/11 03:49:27;;;;;;;2.83;2.25;;;;;;;9.76;61.67;101957.19;5172785;28;20098;-81
2022/10/11 03:51:58;;;;;;;2.08;0.90;;;;;;;9.78;61.81;101954.53;5168766;28;20034;-80
2022/10/11 03:54:28;;;;;;;2.10;1.90;;;;;;;9.77;62.01;101958.94;5160811;28;20029;-82
2022/10/11 03:56:59;;;;;;;0.40;0.40;;;;;;;9.71;62.06;101948.44;5175239;28;20088;-82
2022/10/11 03:59:29;;;;;;;0.93;0.93;;;;;;;9.69;62.27;101955.47;5160856;28;19954;-82
2022/10/11 04:02:00;;;;;;;1.27;1.13;;;;;;;9.71;61.74;101956.31;5150887;28;20042;-82
2022/10/11 04:04:30;;;;;;;1.02;0.98;;;;;;;9.71;61.60;101953.69;5144159;28;20038;-82
2022/10/11 04:07:03;;;;;;;11.38;1.85;;;;;;;9.58;61.69;101959.84;5168161;28;20140;-83
2022/10/11 04:09:34;;;;;;;0.50;0.50;;;;;;;9.58;62.04;101965.09;5146470;28;20041;-81
2022/10/11 04:12:05;;;;;;;13.93;2.63;;;;;;;9.58;61.97;101967.72;5154390;28;20026;-80
2022/10/11 04:14:37;;;;;;;0.65;0.65;;;;;;;9.57;61.87;101966.84;5181537;28;20046;-83
2022/10/11 04:17:08;;;;;;;1.63;1.58;;;;;;;9.49;61.99;101959.88;5179250;28;20025;-83
2022/10/11 04:19:38;;;;;;;0.50;0.45;;;;;;;9.52;61.50;101965.97;5167792;28;20529;-83
2022/10/11 04:22:12;;;;;;;0.60;0.60;;;;;;;9.49;62.30;101963.38;5185443;28;20034;-81
2022/10/11 04:24:43;;;;;;;1.50;1.40;;;;;;;9.47;62.37;101969.47;5166846;28;20030;-83
2022/10/11 04:27:14;;;;;;;0.60;0.60;;;;;;;9.48;61.90;101966.00;5155101;28;20142;-83
2022/10/11 04:29:44;;;;;;;0.93;0.93;;;;;;;9.48;61.83;101969.50;5157653;28;20520;-84
2022/10/11 04:32:15;;;;;;;0.30;0.30;;;;;;;9.45;61.90;101973.00;5181510;28;20034;-83
2022/10/11 04:34:48;;;;;;;2.13;1.92;;;;;;;9.45;61.75;101972.13;5137703;28;20041;-82
2022/10/11 04:37:18;;;;;;;2.15;1.45;;;;;;;9.41;61.55;101976.50;5135734;28;20035;-82
2022/10/11 04:39:49;;;;;;;0.57;0.57;;;;;;;9.40;61.70;101979.13;5167527;28;20050;-81
2022/10/11 04:42:20;;;;;;;0.40;0.40;;;;;;;9.39;61.92;101972.13;5148972;28;20045;-82
2022/10/11 04:44:50;;;;;;;0.60;0.60;;;;;;;9.36;62.05;101983.50;5167001;28;20049;-83
2022/10/11 04:47:24;;;;;;;0.90;0.90;;;;;;;9.31;61.74;101982.63;5143587;28;20030;-83
2022/10/11 04:49:55;;;;;;;0.82;0.82;;;;;;;9.26;61.67;101981.75;5126799;28;20049;-83
2022/10/11 04:52:25;;;;;;;1.35;1.30;;;;;;;9.14;62.39;101991.38;5158846;28;20026;-83
2022/10/11 04:54:56;;;;;;;0.65;0.65;;;;;;;9.06;62.31;101987.88;5122148;28;20435;-82
2022/10/11 04:57:26;;;;;;;0.40;0.40;;;;;;;9.05;62.38;101991.38;5131462;28;20529;-85
2022/10/11 04:59:57;;;;;;;11.52;2.33;;;;;;;9.12;62.36;101995.75;5161051;28;20074;-82
2022/10/11 05:02:27;;;;;;;0.95;0.95;;;;;;;9.14;62.27;102000.97;5143751;28;20030;-83
2022/10/11 05:04:58;;;;;;;0.88;0.85;;;;;;;9.13;61.92;101992.22;5120525;28;20046;-84
2022/10/11 05:07:29;;;;;;;1.38;1.30;;;;;;;9.02;62.07;101996.63;5143396;28;20041;-83
2022/10/11 05:09:59;;;;;;;0.40;0.40;;;;;;;8.95;62.20;102002.72;5162600;28;20034;-84
2022/10/11 05:12:30;;;;;;;1.98;0.85;;;;;;;8.93;62.57;102004.47;5143056;28;20053;-84
2022/10/11 05:15:04;;;;;;;0.47;0.47;;;;;;;8.94;62.48;101996.59;5172311;28;20054;-86
2022/10/11 05:17:34;;;;;;;1.02;1.02;;;;;;;8.97;62.53;102000.97;5146004;28;20107;-83
2022/10/11 05:20:11;;;;;;;0.77;0.77;;;;;;;9.01;62.41;102007.09;5132485;28;20138;-86
2022/10/11 05:22:42;;;;;;;1.55;1.48;;;;;;;8.92;62.23;102005.34;5163614;28;20030;-83
2022/10/11 05:25:12;;;;;;;0.40;0.40;;;;;;;8.93;62.17;102014.94;5145315;28;20050;-83
2022/10/11 05:27:43;;;;;;;2.55;0.95;;;;;;;8.92;62.74;102010.56;5145079;28;20023;-84
2022/10/11 05:30:13;;;;;;;2.08;1.48;;;;;;;8.92;62.21;102013.19;5131491;28;20049;-83
2022/10/11 05:32:44;;;;;;;0.60;0.60;;;;;;;8.90;62.31;102015.81;5146454;28;20038;-84
2022/10/11 05:35:15;;;;;;;1.08;1.02;;;;;;;8.89;62.77;102007.94;5162049;28;20049;-83
2022/10/11 05:37:45;;;;;;;0.43;0.43;;;;;;;8.88;62.29;102024.53;5178519;28;20064;-84
2022/10/11 05:40:16;;;;;;;0.50;0.50;;;;;;;8.80;62.40;102028.00;5141611;28;20049;-83
2022/10/11 05:42:47;;;;;;;0.75;0.75;;;;;;;8.82;62.44;102028.03;5158534;28;20470;-85
2022/10/11 05:45:17;;;;;;;0.40;0.40;;;;;;;8.80;62.53;102025.38;5173358;28;20066;-83
2022/10/11 05:47:48;;;;;;;0.40;0.40;;;;;;;8.82;62.29;102039.34;5173116;28;20384;-85
2022/10/11 05:50:25;;;;;;;2.15;1.95;;;;;;;8.81;62.49;102037.59;5179406;28;20289;-84
2022/10/11 05:52:57;;;;;;;0.43;0.43;;;;;;;8.77;61.94;102041.09;5160997;28;20029;-83
2022/10/11 05:55:46;;;;;;;0.63;0.63;;;;;;;8.67;62.49;102039.31;5184274;28;20093;-83
2022/10/11 05:58:20;;;;;;;0.50;0.50;;;;;;;8.59;62.67;102036.72;5157656;28;20037;-85
2022/10/11 06:00:55;;;;;;;0.60;0.60;;;;;;;8.58;62.73;102041.91;5188591;28;20692;-84
2022/10/11 06:03:31;;;;;;;0.68;0.68;;;;;;;8.55;62.71;102040.19;5165765;28;20045;-84
2022/10/11 06:06:11;;;;;;;1.55;1.40;;;;;;;8.58;62.61;102044.53;5190894;28;20033;-84
2022/10/11 06:08:48;;;;;;;0.40;0.40;;;;;;;8.54;62.81;102042.81;5152383;28;20037;-85
2022/10/11 06:11:22;;;;;;;0.95;0.95;;;;;;;8.54;62.42;102048.03;5170573;28;20026;-84
2022/10/11 06:13:54;;;;;;;0.50;0.50;;;;;;;8.55;62.85;102049.78;5153696;28;20049;-81
2022/10/11 06:16:25;;;;;;;0.45;0.45;;;;;;;8.57;62.44;102048.91;5200821;28;20058;-81
2022/10/11 06:18:56;;;;;;;0.70;0.70;;;;;;;8.59;62.48;102051.53;5159508;28;20047;-82
2022/10/11 06:21:27;;;;;;;0.50;0.50;;;;;;;8.59;62.42;102060.25;5178701;28;20045;-83
2022/10/11 06:24:08;;;;;;;8.82;1.92;;;;;;;8.60;62.64;102053.28;5149012;28;20038;-82
2022/10/11 06:26:48;;;;;;;0.82;0.82;;;;;;;8.58;62.65;102061.13;5150017;28;20050;-81
2022/10/11 06:29:18;;;;;;;0.40;0.40;;;;;;;8.55;62.25;102057.63;5165473;28;20081;-82
2022/10/11 06:31:49;;;;;;;0.40;0.40;;;;;;;8.50;62.29;102068.94;5160805;28;20487;-81
2022/10/11 06:34:24;;;;;;;0.65;0.65;;;;;;;8.53;62.81;102067.22;5138383;28;20042;-83
2022/10/11 06:36:55;;;;;;;0.40;0.40;;;;;;;8.58;62.48;102070.69;5144069;28;20026;-82
2022/10/11 06:39:26;;;;;;;0.40;0.40;;;;;;;8.48;62.73;102077.66;5137488;28;20436;-81
2022/10/11 06:41:56;;;;;;;0.57;0.57;;;;;;;8.45;62.57;102086.34;5156829;28;20045;-82
2022/10/11 06:44:30;;;;;;;0.88;0.88;;;;;;;8.45;62.88;102085.44;5134191;28;20041;-84
2022/10/11 06:47:09;;;;;;;1.60;1.40;;;;;;;8.43;63.26;102084.59;5134159;28;20084;-83
2022/10/11 06:49:42;;;;;;;0.90;0.90;;;;;;;8.46;63.01;102088.09;5126237;28;20042;-82
2022/10/11 06:52:13;;;;;;;0.43;0.43;;;;;;;8.47;62.94;102088.97;5144390;28;20045;-83
2022/10/11 06:54:44;;;;;;;1.13;1.13;;;;;;;8.47;62.76;102094.22;5148182;28;20039;-80
2022/10/11 06:57:15;;;;;;;1.25;1.17;;;;;;;8.41;63.21;102102.00;5137593;28;20727;-83
2022/10/11 06:59:48;;;;;;;0.43;0.43;;;;;;;8.43;63.52;102109.00;5200551;28;20442;-82
2022/10/11 07:02:24;;;;;;;1.33;1.23;;;;;;;8.46;63.39;102105.50;5181966;28;20094;-83
2022/10/11 07:04:58;;;;;;;1.40;0.90;;;;;;;8.48;63.38;102101.19;5164957;28;20049;-84
2022/10/11 07:07:29;;;;;;;0.45;0.45;;;;;;;8.47;63.39;102108.16;5173748;28;20087;-83
2022/10/11 07:10:35;;;;;;;1.40;1.25;;;;;;;8.53;63.35;102107.31;5188774;28;20132;-84
2022/10/11 07:13:11;;;;;;;4.45;1.23;;;;;;;8.52;63.27;102115.16;5186954;28;20051;-83
2022/10/11 07:15:45;;;;;;;1.38;1.17;;;;;;;8.52;63.82;102117.78;5173235;28;20086;-85
2022/10/11 07:18:15;;;;;;;1.30;1.27;;;;;;;8.57;63.36;102119.53;5155523;28;20073;-82
2022/10/11 07:20:49;;;;;;;0.80;0.80;;;;;;;8.54;63.62;102121.28;5152852;28;20046;-83
2022/10/11 07:23:22;;;;;;;3.45;1.15;;;;;;;8.48;64.60;102122.13;5160119;28;20135;-83
2022/10/11 07:25:54;;;;;;;0.32;0.32;;;;;;;8.51;64.24;102122.16;5156376;28;20041;-85
2022/10/11 07:28:25;;;;;;;0.73;0.73;;;;;;;8.52;64.93;102125.63;5186341;28;20045;-83
2022/10/11 07:31:19;;;;;;;0.38;0.38;;;;;;;8.55;64.56;102123.03;5173355;28;20531;-83
2022/10/11 07:33:50;;;;;;;0.70;0.70;;;;;;;8.55;65.00;102128.25;5142473;28;20050;-84
2022/10/11 07:36:22;;;;;;;1.02;1.02;;;;;;;8.60;65.03;102135.25;5176896;28;20486;-83
2022/10/11 07:38:52;;;;;;;1.85;1.23;;;;;;;8.64;64.63;102138.75;5153632;28;20065;-82
2022/10/11 07:41:30;;;;;;;2.25;1.05;;;;;;;8.70;64.49;102135.28;5153981;28;20068;-83
2022/10/11 07:44:09;;;;;;;0.57;0.57;;;;;;;8.70;65.70;102133.56;5173443;28;20045;-83
2022/10/11 07:46:40;;;;;;;0.30;0.30;;;;;;;8.80;65.68;102135.31;5169685;28;20068;-84
2022/10/11 07:49:11;;;;;;;0.52;0.52;;;;;;;8.77;65.47;102135.31;5150721;28;20080;-82
2022/10/11 07:51:42;;;;;;;1.08;1.08;;;;;;;8.76;67.47;102138.78;5197626;28;20030;-82
2022/10/11 07:54:17;;;;;;;0.70;0.70;;;;;;;8.81;66.75;102131.81;5166125;28;20132;-85
2022/10/11 07:56:47;;;;;;;4.47;2.28;;;;;;;8.82;67.40;102138.81;5174427;28;20138;-82
2022/10/11 07:59:18;;;;;;;0.50;0.50;;;;;;;8.87;67.06;102135.34;5159012;28;20561;-82
2022/10/11 08:01:51;;;;;;;0.63;0.63;;;;;;;8.92;67.67;102131.88;5175083;28;20091;-83
2022/10/11 08:04:24;;;;;;;1.60;1.50;;;;;;;8.96;67.27;102131.00;5191427;28;20044;-82
2022/10/11 08:06:57;;;;;;;0.82;0.82;;;;;;;9.04;66.66;102132.75;5154481;28;20026;-83
2022/10/11 08:09:31;;;;;;;0.40;0.40;;;;;;;9.09;67.72;102142.38;5166732;28;20061;-83
2022/10/11 08:12:04;;;;;;;;;;;;;;;9.13;66.60;102131.00;5174693;28;20434;-82
2022/10/11 08:14:37;;;;;;;0.45;0.45;;;;;;;9.15;68.05;102138.91;5160938;28;19928;-82
2022/10/11 08:17:11;;;;;;;0.40;0.40;;;;;;;9.19;67.50;102137.16;5168832;28;20039;-82
2022/10/11 08:19:41;;;;;;;0.32;0.32;;;;;;;9.23;70.18;102144.13;5149312;28;20030;-82
2022/10/11 08:22:17;;;;;;;0.40;0.40;;;;;;;9.28;69.95;102148.50;5155156;28;20037;-84
2022/10/11 08:24:48;;;;;;;0.73;0.73;;;;;;;9.33;71.01;102145.88;5168559;28;20424;-82
2022/10/11 08:27:19;;;;;;;0.50;0.50;;;;;;;9.36;68.96;102145.91;5185986;28;20049;-84
2022/10/11 08:29:50;;;;;;;1.45;1.10;;;;;;;9.40;69.05;102144.16;5166980;28;20119;-83
2022/10/11 08:32:22;;;;;;;1.17;1.10;;;;;;;9.43;69.63;102154.63;5174286;28;20057;-82
2022/10/11 08:35:01;;;;;;;0.85;0.85;;;;;;;9.47;69.84;102151.16;5153805;28;20050;-82
2022/10/11 08:37:42;;;;;;;1.52;1.42;;;;;;;9.55;69.46;102149.41;5188691;28;20018;-84
2022/10/11 08:40:25;;;;;;;2.73;1.80;;;;;;;9.59;68.16;102156.38;5179972;28;20118;-82
2022/10/11 08:43:15;;;;;;;0.90;0.88;;;;;;;9.65;69.17;102157.25;5163234;28;20300;-83
2022/10/11 08:45:57;;;;;;;0.45;0.45;;;;;;;9.72;68.20;102162.50;5176342;28;20048;-84
2022/10/11 08:48:33;;;;;;;0.50;0.50;;;;;;;9.77;68.68;102162.50;5189994;28;20034;-82
2022/10/11 08:51:31;;;;;;;0.60;0.60;;;;;;;9.80;68.23;102158.97;5183810;28;20116;-81
2022/10/11 08:54:42;;;;;;;0.40;0.40;;;;;;;9.84;70.12;102158.13;5173554;28;20425;-82
2022/10/11 08:57:20;;;;;;;1.10;1.10;;;;;;;9.81;69.92;102158.13;5155240;28;20729;-83
2022/10/11 09:00:11;;;;;;;0.88;0.88;;;;;;;9.85;71.57;102154.63;5140423;28;20037;-82
2022/10/11 09:02:56;;;;;;;0.95;0.95;;;;;;;9.88;71.63;102159.84;5149998;28;20026;-82
2022/10/11 09:06:21;;;;;;;0.50;0.50;;;;;;;9.91;71.25;102159.84;5152375;28;20034;-83
2022/10/11 09:09:21;;;;;;;1.17;1.15;;;;;;;9.95;71.68;102156.38;5081343;28;20035;-83
2022/10/11 09:12:01;;;;;;;1.08;1.08;;;;;;;10.03;72.17;102159.84;5180675;28;20026;-84
2022/10/11 09:15:20;;;;;;;0.43;0.43;;;;;;;9.99;72.94;102149.38;5150815;28;20041;-85
2022/10/11 09:17:59;;;;;;;1.38;1.13;;;;;;;10.15;71.93;102155.44;5148397;28;20038;-85
2022/10/11 09:21:11;;;;;;;;;;;;;;;;;;;;;
2022/10/11 09:24:10;;;;;;;1.48;0.75;;;;;;;10.18;73.85;102151.06;5165459;28;20039;-86
2022/10/11 09:27:25;;;;;;;3.40;2.03;;;;;;;10.22;73.81;102154.53;5148671;28;20182;-85
2022/10/11 09:30:09;;;;;;;1.20;1.20;;;;;;;10.36;73.73;102160.66;5188555;28;20054;-85
2022/10/11 09:33:10;;;;;;;0.52;0.52;;;;;;;10.36;74.22;102152.78;5155205;28;20042;-85
2022/10/11 09:35:50;;;;;;;2.72;1.30;;;;;;;10.36;73.16;102165.00;5180432;28;20089;-84
2022/10/11 09:38:40;;;;;;;1.00;1.00;;;;;;;10.45;74.82;102161.53;5150041;28;20048;-82
2022/10/11 09:41:42;;;;;;;0.55;0.55;;;;;;;10.53;77.45;102170.25;5180029;28;20026;-82
2022/10/11 09:44:25;;;;;;;0.43;0.43;;;;;;;10.58;78.01;102160.59;5148558;28;20672;-82
2022/10/11 09:47:16;;;;;;;3.65;3.00;;;;;;;10.60;77.89;102166.72;5172396;28;20036;-84
2022/10/11 09:50:01;;;;;;;2.60;2.40;;;;;;;10.61;76.35;102160.59;5159517;28;20034;-83
2022/10/11 09:52:46;;;;;;;0.93;0.93;;;;;;;10.64;76.83;102165.81;5165811;28;20033;-84
2022/10/11 09:55:39;;;;;;;1.85;1.27;;;;;;;10.75;76.18;102165.75;5144604;28;20034;-83
2022/10/11 09:58:24;;;;;;;1.85;1.73;;;;;;;10.82;77.36;102162.25;5181600;28;20065;-82
2022/10/11 10:01:23;;;;;;;2.72;1.70;;;;;;;10.83;76.28;102168.34;5170094;28;20105;-82
2022/10/11 10:04:17;;;;;;;1.10;1.10;;;;;;;10.85;75.04;102171.84;5157911;28;20038;-83
2022/10/11 10:07:14;;;;;;;1.20;1.10;;;;;;;10.92;76.98;102167.44;5153467;28;20026;-84
2022/10/11 10:09:47;;;;;;;1.67;1.58;;;;;;;11.01;76.21;102175.25;5158502;28;20039;-84
2022/10/11 10:12:29;;;;;;;3.85;2.25;;;;;;;11.02;75.44;102170.03;5207648;28;20049;-84
2022/10/11 10:15:18;;;;;;;0.70;0.70;;;;;;;11.12;75.29;102172.56;5141561;28;20122;-83
2022/10/11 10:18:09;;;;;;;1.52;1.42;;;;;;;11.07;76.25;102166.47;5167602;28;20039;-84
2022/10/11 10:20:40;;;;;;;1.98;1.83;;;;;;;11.27;75.84;102175.13;5180089;28;20126;-83
2022/10/11 10:23:26;;;;;;;2.00;1.90;;;;;;;11.30;76.03;102169.81;5169303;28;20141;-83
2022/10/11 10:26:17;;;;;;;1.73;1.63;;;;;;;11.29;76.74;102168.06;5172287;28;20038;-84
2022/10/11 10:29:15;;;;;;;2.05;1.85;;;;;;;11.39;77.60;102168.91;5190415;28;20073;-83
2022/10/11 10:32:22;;;;;;;1.85;1.45;;;;;;;11.40;76.68;102164.50;5206737;28;20045;-81
2022/10/11 10:35:21;;;;;;;8.95;2.70;;;;;;;11.42;76.17;102168.00;5176784;28;20049;-83
2022/10/11 10:38:23;;;;;;;3.00;2.03;;;;;;;11.51;75.19;102170.56;5169274;28;20084;-82
2022/10/11 10:41:10;;;;;;;1.23;1.20;;;;;;;11.49;75.79;102164.44;5204379;28;20018;-82
2022/10/11 10:43:48;;;;;;;3.10;1.63;;;;;;;11.52;75.68;102161.81;5185963;28;20044;-85
2022/10/11 10:46:53;;;;;;;1.38;1.27;;;;;;;11.61;75.53;102156.44;5197650;28;20442;-84
2022/10/11 10:49:44;;;;;;;1.73;1.58;;;;;;;11.58;75.75;102158.22;5160454;28;20037;-84
2022/10/11 10:52:42;;;;;;;1.77;1.30;;;;;;;11.62;74.29;102155.56;5211543;28;20037;-83
2022/10/11 10:55:40;;;;;;;1.35;1.25;;;;;;;11.63;74.91;102162.56;5171290;28;20042;-83
2022/10/11 10:58:47;;;;;;;1.48;1.38;;;;;;;11.67;74.66;102158.16;5173801;28;20062;-81
2022/10/11 11:01:31;;;;;;;1.42;1.33;;;;;;;11.65;74.21;102159.94;5188397;23;20028;-80
2022/10/11 11:04:30;;;;;;;2.28;1.33;;;;;;;11.67;73.54;102159.91;5162271;28;20255;-79
2022/10/11 11:07:14;;;;;;;2.55;1.48;;;;;;;11.68;73.47;102162.53;5185934;28;20045;-80
2022/10/11 11:10:06;;;;;;;5.28;0.85;;;;;;;11.80;72.23;102153.66;5150127;28;20034;-81
2022/10/11 11:12:42;;;;;;;0.50;0.50;;;;;;;11.81;72.14;102156.28;5170246;28;20455;-82
2022/10/11 11:15:26;;;;;;;1.35;0.98;;;;;;;11.86;71.10;102148.34;5144127;28;20413;-81
2022/10/11 11:18:02;;;;;;;2.33;2.15;;;;;;;11.86;71.68;102150.97;5164463;28;20053;-80
2022/10/11 11:20:51;;;;;;;1.60;1.50;;;;;;;11.94;71.26;102150.91;5143558;28;20034;-80
2022/10/11 11:23:42;;;;;;;1.27;1.20;;;;;;;12.02;70.81;102137.72;5158599;28;20030;-80
2022/10/11 11:26:40;;;;;;;0.63;0.63;;;;;;;12.02;69.78;102138.56;5158916;28;20053;-81
2022/10/11 11:29:33;;;;;;;0.35;0.35;;;;;;;12.17;68.83;102134.03;5124488;28;20042;-79
2022/10/11 11:32:15;;;;;;;0.63;0.63;;;;;;;12.17;69.41;102136.66;5160263;28;20505;-79
2022/10/11 11:34:46;;;;;;;0.50;0.50;;;;;;;12.29;68.76;102128.63;5156985;28;20069;-79
2022/10/11 11:37:35;;;;;;;0.93;0.85;;;;;;;12.27;69.32;102125.16;5147774;28;20057;-80
2022/10/11 11:40:11;;;;;;;0.60;0.60;;;;;;;12.31;68.86;102123.34;5143563;28;20057;-80
2022/10/11 11:42:54;;;;;;;0.63;0.63;;;;;;;12.37;67.66;102123.28;5137180;28;20111;-79
2022/10/11 11:45:30;;;;;;;1.10;1.00;;;;;;;12.39;66.36;102127.66;5136517;28;20042;-80
2022/10/11 11:48:09;;;;;;;0.45;0.45;;;;;;;12.46;67.48;102122.31;5137455;28;20070;-81
2022/10/11 11:50:45;;;;;;;1.30;1.20;;;;;;;12.53;67.24;102114.28;5165307;28;20335;-80
2022/10/11 11:53:23;;;;;;;0.47;0.47;;;;;;;12.52;65.90;102117.81;5157145;28;20049;-79
2022/10/11 11:55:56;;;;;;;1.98;1.75;;;;;;;12.58;66.90;102124.75;5170715;28;20577;-80
2022/10/11 11:58:49;;;;;;;;;;;;;;;12.68;66.45;102120.25;5169338;28;20128;-80
2022/10/11 12:01:36;;;;;;;0.30;0.30;;;;;;;12.67;65.74;102122.00;5155390;28;19922;-80
2022/10/11 12:04:34;;;;;;;0.95;0.95;;;;;;;12.73;66.49;102110.53;5161061;28;20127;-79
2022/10/11 12:07:09;;;;;;;2.10;1.50;;;;;;;12.84;66.44;102110.38;5136491;28;20381;-80
2022/10/11 12:09:43;;;;;;;0.80;0.80;;;;;;;12.91;66.32;102109.38;5136828;28;20033;-79
2022/10/11 12:12:34;;;;;;;;;;;;;;;12.96;64.86;102110.22;5149970;28;20045;-79
2022/10/11 12:15:08;;;;;;;0.80;0.57;;;;;;;12.95;64.02;102108.47;5171593;28;19918;-78
2022/10/11 12:17:57;;;;;;;1.95;1.85;;;;;;;13.04;63.91;102110.06;5155658;28;20041;-80
2022/10/11 12:20:40;;;;;;;0.20;0.20;;;;;;;13.14;61.14;102103.78;5158203;28;20232;-81
2022/10/11 12:23:29;;;;;;;0.60;0.60;;;;;;;13.22;62.97;102098.41;5163166;28;20497;-80